Time;durP1;ratioP1;P1;durP2;ratioP2;P2;SDS_P1;SDS_P2;PMS_P1;PMS_P2;Temp;Humidity;BMP_temperature;BMP_pressure;BME280_temperature;BME280_humidity;BME280_pressure;Samples;Min_cycle;Max_cycle;Signal;HPM_P1;HPM_P2
2022/03/04 00:01:43;;;;;;;;;19.00;15.50;;;;;20.39;33.78;101140.06;5078160;27;46063;-56
2022/03/04 00:04:09;;;;;;;;;17.50;15.50;;;;;20.37;33.61;101134.03;5078505;27;45232;-54
2022/03/04 00:06:34;;;;;;;;;16.50;15.50;;;;;20.36;33.78;101134.94;5078404;27;45289;-56
2022/03/04 00:08:59;;;;;;;;;19.25;17.00;;;;;20.34;33.71;101136.78;5078346;27;45243;-54
2022/03/04 00:11:25;;;;;;;;;19.50;15.50;;;;;20.33;33.74;101135.13;5078092;27;45979;-57
2022/03/04 00:13:50;;;;;;;;;13.25;12.00;;;;;20.31;33.41;101142.22;5076925;28;45347;-57
2022/03/04 00:16:16;;;;;;;;;18.50;13.75;;;;;20.29;33.40;101132.69;5077842;27;45716;-55
2022/03/04 00:18:41;;;;;;;;;14.25;12.50;;;;;20.27;33.58;101137.19;5078283;27;45256;-57
2022/03/04 00:21:09;;;;;;;;;19.25;15.00;;;;;20.26;34.08;101132.84;5078099;27;46291;-57
2022/03/04 00:23:34;;;;;;;;;13.75;13.25;;;;;20.24;34.13;101135.56;5077905;27;45385;-55
2022/03/04 00:26:00;;;;;;;;;14.50;12.00;;;;;20.21;33.53;101128.66;5078004;27;45924;-57
2022/03/04 00:28:25;;;;;;;;;15.25;14.75;;;;;20.21;33.91;101138.34;5077954;27;45494;-56
2022/03/04 00:30:50;;;;;;;;;15.50;14.75;;;;;20.19;33.86;101134.94;5077458;27;46502;-54
2022/03/04 00:33:15;;;;;;;;;14.00;13.00;;;;;20.18;33.76;101135.88;5077145;27;45410;-57
2022/03/04 00:35:41;;;;;;;;;17.75;17.00;;;;;20.16;34.09;101137.72;5078078;27;45403;-57
2022/03/04 00:38:06;;;;;;;;;16.25;15.50;;;;;20.15;34.25;101136.00;5077946;27;45279;-55
2022/03/04 00:40:31;;;;;;;;;17.50;14.75;;;;;20.13;33.78;101132.59;5077563;27;45384;-57
2022/03/04 00:42:57;;;;;;;;;15.25;14.00;;;;;20.11;34.01;101126.56;5077696;27;45302;-56
2022/03/04 00:45:22;;;;;;;;;19.25;14.00;;;;;20.11;33.88;101129.22;5077694;27;45356;-54
2022/03/04 00:47:47;;;;;;;;;18.00;15.25;;;;;20.10;33.92;101130.13;5077757;27;45268;-57
2022/03/04 00:50:13;;;;;;;;;15.25;15.25;;;;;20.08;33.79;101125.78;5077374;27;45447;-54
2022/03/04 00:52:38;;;;;;;;;18.50;13.75;;;;;20.08;34.30;101127.56;5078035;27;45452;-57
2022/03/04 00:55:04;;;;;;;;;16.25;12.75;;;;;20.06;33.73;101127.66;5077627;27;45314;-55
2022/03/04 00:57:30;;;;;;;;;15.25;14.50;;;;;20.05;33.92;101128.56;5077756;27;45498;-56
2022/03/04 00:59:55;;;;;;;;;18.75;15.75;;;;;20.04;33.77;101126.84;5077182;27;46030;-55
2022/03/04 01:02:21;;;;;;;;;17.75;16.50;;;;;20.04;33.98;101126.03;5077411;27;45177;-57
2022/03/04 01:04:46;;;;;;;;;16.75;15.75;;;;;20.03;34.22;101129.56;5077619;27;45247;-55
2022/03/04 01:07:11;;;;;;;;;14.50;14.25;;;;;20.01;34.09;101129.63;5076492;27;45534;-57
2022/03/04 01:09:37;;;;;;;;;20.50;17.50;;;;;20.01;34.16;101128.78;5076980;27;45908;-57
2022/03/04 01:12:04;;;;;;;;;18.00;17.50;;;;;20.01;34.49;101129.63;5077221;27;45251;-56
2022/03/04 01:14:29;;;;;;;;;19.50;16.50;;;;;20.04;34.09;101134.75;5076925;27;45663;-56
2022/03/04 01:16:54;;;;;;;;;17.00;16.50;;;;;20.05;34.53;101136.47;5077406;27;45576;-55
2022/03/04 01:19:20;;;;;;;;;19.75;16.25;;;;;20.11;34.38;101131.84;5076928;27;45921;-57
2022/03/04 01:21:45;;;;;;;;;21.50;15.50;;;;;20.16;34.25;101133.31;5077314;27;45357;-55
2022/03/04 01:24:11;;;;;;;;;19.75;18.00;;;;;20.20;34.38;101131.38;5077428;27;45335;-57
2022/03/04 01:26:36;;;;;;;;;18.25;17.50;;;;;20.26;34.10;101130.22;5077279;27;45610;-57
2022/03/04 01:29:02;;;;;;;;;11.50;10.00;;;;;20.30;34.17;101130.00;5076624;27;45460;-55
2022/03/04 01:31:28;;;;;;;;;18.25;18.25;;;;;20.35;34.53;101130.59;5076910;27;45464;-56
2022/03/04 01:33:53;;;;;;;;;19.00;17.25;;;;;20.41;34.42;101131.25;5076999;27;45452;-54
2022/03/04 01:36:18;;;;;;;;;18.25;15.75;;;;;20.44;34.22;101137.19;5077285;27;45322;-55
2022/03/04 01:38:44;;;;;;;;;17.75;17.75;;;;;20.48;34.28;101135.25;5077016;27;46142;-57
2022/03/04 01:41:09;;;;;;;;;18.75;17.25;;;;;20.51;34.36;101127.22;5076810;27;45345;-56
2022/03/04 01:43:35;;;;;;;;;15.75;14.25;;;;;20.58;34.21;101139.13;5076154;28;45236;-55
2022/03/04 01:46:18;;;;;;;;;16.50;10.50;;;;;20.61;34.48;101138.97;5076490;27;45589;-56
2022/03/04 01:48:45;;;;;;;;;19.25;17.50;;;;;20.65;34.21;101139.66;5076959;27;47356;-56
2022/03/04 01:51:11;;;;;;;;;20.00;15.75;;;;;20.66;33.77;101126.44;5092459;27;45279;-56
2022/03/04 01:53:38;;;;;;;;;20.00;18.75;;;;;20.68;33.73;101124.56;5076766;27;45186;-55
2022/03/04 01:56:06;;;;;;;;;20.00;17.50;;;;;20.76;34.22;101126.00;5076707;27;45584;-56
2022/03/04 01:58:32;;;;;;;;;19.00;18.50;;;;;20.78;33.94;101118.88;5075241;28;46139;-56
2022/03/04 02:00:57;;;;;;;;;22.00;19.00;;;;;20.79;33.80;101117.91;5076404;27;45390;-57
2022/03/04 02:03:25;;;;;;;;;21.25;21.25;;;;;20.82;34.10;101115.13;5076481;27;45429;-56
2022/03/04 02:05:50;;;;;;;;;22.75;19.75;;;;;20.83;33.93;101112.44;5075352;28;45447;-54
2022/03/04 02:08:15;;;;;;;;;19.25;17.50;;;;;20.86;33.80;101111.41;5076344;27;45243;-55
2022/03/04 02:10:41;;;;;;;;;20.75;20.00;;;;;20.88;33.92;101104.28;5076324;27;45336;-57
2022/03/04 02:13:06;;;;;;;;;24.75;22.00;;;;;20.87;33.69;101102.59;5076447;27;45196;-56
2022/03/04 02:15:31;;;;;;;;;20.25;18.25;;;;;20.89;34.14;101099.84;5076527;27;45253;-57
2022/03/04 02:17:57;;;;;;;;;23.25;20.25;;;;;20.89;33.95;101103.31;5076345;27;46073;-55
2022/03/04 02:20:22;;;;;;;;;20.75;18.25;;;;;20.89;33.92;101103.31;5076459;27;45350;-58
2022/03/04 02:22:50;;;;;;;;;22.00;19.75;;;;;20.90;33.89;101107.66;5076301;27;45671;-55
2022/03/04 02:25:15;;;;;;;;;17.25;17.00;;;;;20.88;34.03;101099.03;5076709;27;45537;-56
2022/03/04 02:27:41;;;;;;;;;19.00;18.75;;;;;20.88;33.71;101106.91;5075936;28;46368;-57
2022/03/04 02:30:06;;;;;;;;;17.50;17.50;;;;;20.87;34.18;101099.94;5074676;28;45461;-57
2022/03/04 02:32:32;;;;;;;;;22.00;20.75;;;;;20.87;33.71;101089.41;5076213;27;45260;-58
2022/03/04 02:34:57;;;;;;;;;20.25;19.25;;;;;20.87;33.76;101102.59;5076213;27;45263;-57
2022/03/04 02:37:23;;;;;;;;;25.25;20.25;;;;;20.84;33.87;101094.84;5075957;27;46114;-58
2022/03/04 02:39:50;;;;;;;;;18.75;18.25;;;;;20.85;34.16;101088.63;5075882;27;45477;-54
2022/03/04 02:42:16;;;;;;;;;20.75;17.50;;;;;20.85;33.64;101094.75;5076418;27;45333;-57
2022/03/04 02:44:42;;;;;;;;;21.75;19.25;;;;;20.82;34.18;101089.66;5076125;27;45241;-58
2022/03/04 02:47:07;;;;;;;;;22.50;21.50;;;;;20.83;34.14;101101.03;5074624;28;46289;-57
2022/03/04 02:49:32;;;;;;;;;23.00;19.50;;;;;20.81;33.74;101100.25;5075844;27;45388;-57
2022/03/04 02:51:58;;;;;;;;;20.00;18.00;;;;;20.82;33.94;101104.59;5075952;27;45246;-55
2022/03/04 02:54:23;;;;;;;;;20.00;17.75;;;;;20.80;34.39;101099.41;5076075;27;45508;-57
2022/03/04 02:56:48;;;;;;;;;21.75;19.75;;;;;20.78;34.08;101098.63;5078415;27;46053;-54
2022/03/04 02:59:14;;;;;;;;;22.25;21.00;;;;;20.77;33.94;101101.38;5079433;27;45306;-56
2022/03/04 03:01:39;;;;;;;;;20.00;17.75;;;;;20.77;33.96;101101.38;5079263;27;45512;-57
2022/03/04 03:04:05;;;;;;;;;20.00;19.50;;;;;20.75;33.83;101105.84;5078175;28;45431;-56
2022/03/04 03:06:30;;;;;;;;;19.50;17.00;;;;;20.74;33.83;101104.13;5079019;27;45371;-56
2022/03/04 03:08:55;;;;;;;;;26.75;22.75;;;;;20.73;34.37;101105.03;5079003;27;45540;-56
2022/03/04 03:11:21;;;;;;;;;22.00;19.00;;;;;20.70;33.99;101106.91;5079087;27;45987;-55
2022/03/04 03:13:46;;;;;;;;;21.00;19.00;;;;;20.69;34.12;101110.47;5079588;27;45620;-56
2022/03/04 03:16:11;;;;;;;;;22.50;21.00;;;;;20.68;33.92;101100.84;5078549;27;51012;-57
2022/03/04 03:18:37;;;;;;;;;21.25;18.50;;;;;20.68;34.14;101107.91;5078905;27;45245;-56
2022/03/04 03:21:02;;;;;;;;;21.25;20.25;;;;;20.66;34.41;101105.38;5078903;27;45455;-56
2022/03/04 03:23:28;;;;;;;;;22.50;19.25;;;;;20.65;34.05;101103.66;5079153;27;45271;-56
2022/03/04 03:25:53;;;;;;;;;18.75;18.75;;;;;20.64;34.01;101107.22;5078664;27;45350;-55
2022/03/04 03:28:19;;;;;;;;;19.75;19.75;;;;;20.64;34.47;101109.88;5078879;27;45349;-55
2022/03/04 03:30:44;;;;;;;;;19.75;17.50;;;;;20.62;34.56;101106.44;5078963;27;45307;-55
2022/03/04 03:33:10;;;;;;;;;20.00;18.75;;;;;20.60;34.00;101108.31;5079113;27;45683;-56
2022/03/04 03:35:35;;;;;;;;;21.33;20.33;;;;;20.60;34.10;101112.72;5078497;27;51669;-59
2022/03/04 03:38:00;;;;;;;;;18.25;18.25;;;;;20.59;34.41;101113.66;5078923;27;45253;-57
2022/03/04 03:40:26;;;;;;;;;22.25;20.50;;;;;20.58;34.18;101122.50;5078857;27;45254;-57
2022/03/04 03:42:51;;;;;;;;;20.00;18.25;;;;;20.55;34.09;101119.06;5079185;27;45348;-55
2022/03/04 03:45:16;;;;;;;;;20.50;19.00;;;;;20.53;34.71;101112.19;5078949;27;45351;-56
2022/03/04 03:47:42;;;;;;;;;21.25;17.50;;;;;20.54;34.36;101127.06;5078673;27;45296;-57
2022/03/04 03:50:10;;;;;;;;;19.25;18.00;;;;;20.52;34.33;101126.28;5078639;27;45409;-57
2022/03/04 03:52:37;;;;;;;;;20.50;19.25;;;;;20.49;34.51;101119.41;5078801;27;45480;-56
2022/03/04 03:55:03;;;;;;;;;21.75;18.75;;;;;20.48;34.59;101116.81;5077099;27;48514;-57
2022/03/04 03:57:29;;;;;;;;;23.50;17.75;;;;;20.44;34.40;101116.13;5078393;28;45335;-57
2022/03/04 03:59:54;;;;;;;;;21.75;20.50;;;;;20.46;34.65;101118.69;5078508;27;45368;-57
2022/03/04 04:02:19;;;;;;;;;18.75;18.00;;;;;20.43;34.67;101122.34;5079105;27;45232;-58
2022/03/04 04:04:46;;;;;;;;;23.50;19.00;;;;;20.44;34.56;101125.84;5093864;27;47969;-57
2022/03/04 04:07:12;;;;;;;;;21.75;20.75;;;;;20.42;34.36;101128.53;5077393;27;45279;-56
2022/03/04 04:09:38;;;;;;;;;18.25;18.25;;;;;20.41;34.78;101131.25;5078090;27;45310;-58
2022/03/04 04:12:04;;;;;;;;;21.00;19.50;;;;;20.40;34.75;101122.47;5078497;27;45173;-57
2022/03/04 04:14:29;;;;;;;;;22.50;21.00;;;;;20.38;34.70;101127.00;5077869;27;46447;-58
2022/03/04 04:16:56;;;;;;;;;23.75;18.00;;;;;20.36;34.45;101127.03;5078042;27;45341;-55
2022/03/04 04:19:22;;;;;;;;;24.75;22.25;;;;;20.35;34.47;101125.34;5078429;27;45263;-58
2022/03/04 04:21:49;;;;;;;;;22.00;19.00;;;;;20.34;35.01;101128.06;5078538;27;45454;-57
2022/03/04 04:24:15;;;;;;;;;17.50;17.50;;;;;20.32;35.07;101120.25;5077658;27;45512;-58
2022/03/04 04:26:41;;;;;;;;;23.00;19.25;;;;;20.31;35.05;101123.81;5077820;27;45171;-55
2022/03/04 04:29:06;;;;;;;;;20.00;20.00;;;;;20.29;34.47;101123.03;5077897;27;45361;-57
2022/03/04 04:31:32;;;;;;;;;25.75;21.00;;;;;20.29;35.00;101130.94;5078086;27;45610;-57
2022/03/04 04:33:59;;;;;;;;;24.75;19.25;;;;;20.26;34.77;101128.44;5077805;27;46319;-57
2022/03/04 04:36:25;;;;;;;;;22.75;20.25;;;;;20.27;35.02;101145.94;5077659;27;45494;-57
2022/03/04 04:38:50;;;;;;;;;22.50;19.50;;;;;20.21;34.96;101135.72;5078165;27;45417;-57
2022/03/04 04:41:15;;;;;;;;;20.50;19.00;;;;;20.23;34.71;101134.72;5077880;27;45555;-57
2022/03/04 04:43:41;;;;;;;;;23.50;19.25;;;;;20.21;34.99;101141.00;5077512;27;45459;-56
2022/03/04 04:46:06;;;;;;;;;20.00;19.00;;;;;20.21;35.04;101143.63;5076345;28;45484;-57
2022/03/04 04:48:32;;;;;;;;;18.75;18.75;;;;;20.19;34.85;101137.56;5077576;27;45516;-55
2022/03/04 04:50:59;;;;;;;;;23.75;21.50;;;;;20.16;34.73;101143.84;5076643;28;45401;-57
2022/03/04 04:53:25;;;;;;;;;19.75;19.75;;;;;20.17;34.78;101145.56;5077408;27;47039;-57
2022/03/04 04:55:50;;;;;;;;;17.25;17.25;;;;;20.17;35.09;101149.94;5077689;27;45315;-57
2022/03/04 04:58:16;;;;;;;;;18.25;18.25;;;;;20.16;35.21;101153.50;5077596;27;45234;-58
2022/03/04 05:00:41;;;;;;;;;19.00;18.75;;;;;20.14;35.12;101150.09;5077599;27;45353;-57
2022/03/04 05:03:07;;;;;;;;;18.25;18.25;;;;;20.11;35.08;101151.09;5077267;27;46258;-57
2022/03/04 05:05:32;;;;;;;;;18.75;17.75;;;;;20.10;34.68;101144.13;5077352;27;45234;-57
2022/03/04 05:07:58;;;;;;;;;21.50;20.50;;;;;20.12;35.01;101154.59;5077214;27;45409;-56
2022/03/04 05:10:23;;;;;;;;;18.75;17.50;;;;;20.08;35.28;101152.09;5077862;27;45153;-57
2022/03/04 05:12:49;;;;;;;;;20.50;18.75;;;;;20.10;34.86;101153.81;5092782;27;46696;-57
2022/03/04 05:15:14;;;;;;;;;19.00;19.00;;;;;20.08;35.03;101162.63;5076929;27;45509;-55
2022/03/04 05:17:40;;;;;;;;;23.00;22.25;;;;;20.06;35.14;101164.47;5077190;27;45507;-56
2022/03/04 05:20:06;;;;;;;;;18.00;18.00;;;;;20.06;35.30;101161.84;5077311;27;45506;-56
2022/03/04 05:22:32;;;;;;;;;18.00;17.25;;;;;20.04;35.19;101166.31;5076879;27;45413;-56
2022/03/04 05:24:57;;;;;;;;;24.50;20.25;;;;;20.02;35.35;101165.53;5076910;28;45365;-56
2022/03/04 05:27:22;;;;;;;;;26.33;23.00;;;;;20.03;35.14;101164.63;5077151;28;45994;-57
2022/03/04 05:29:48;;;;;;;;;26.75;20.75;;;;;20.03;35.38;101174.31;5077109;27;45247;-57
2022/03/04 05:32:13;;;;;;;;;22.25;20.00;;;;;20.01;35.07;101171.72;5075444;27;46781;-56
2022/03/04 05:34:41;;;;;;;;;23.00;21.25;;;;;19.99;35.67;101170.97;5076844;27;45509;-57
2022/03/04 05:37:06;;;;;;;;;23.50;18.75;;;;;19.96;35.20;101163.22;5076918;27;45369;-56
2022/03/04 05:39:31;;;;;;;;;23.00;21.25;;;;;19.95;35.21;101169.41;5077087;27;45233;-57
2022/03/04 05:41:57;;;;;;;;;18.75;18.50;;;;;19.95;35.70;101172.03;5076641;27;45860;-56
2022/03/04 05:44:22;;;;;;;;;19.25;19.25;;;;;19.96;35.51;101172.88;5077037;27;45233;-57
2022/03/04 05:46:47;;;;;;;;;23.25;19.50;;;;;19.92;34.96;101166.91;5076747;27;45228;-57
2022/03/04 05:49:13;;;;;;;;;23.75;21.75;;;;;19.92;35.49;101169.53;5076809;27;45153;-57
2022/03/04 05:51:38;;;;;;;;;22.50;21.25;;;;;19.92;35.54;101166.91;5076439;27;45882;-56
2022/03/04 05:54:04;;;;;;;;;19.50;18.75;;;;;19.91;35.29;101173.09;5075240;28;45285;-53
2022/03/04 05:56:29;;;;;;;;;22.50;21.00;;;;;19.88;35.38;101163.56;5076706;27;45398;-57
2022/03/04 05:58:55;;;;;;;;;24.50;21.00;;;;;19.89;35.57;101172.34;5077155;27;45750;-56
2022/03/04 06:01:20;;;;;;;;;25.50;20.50;;;;;19.89;35.80;101172.34;5076437;27;45549;-56
2022/03/04 06:03:45;;;;;;;;;25.75;22.50;;;;;19.89;35.37;101172.34;5092032;27;45541;-55
2022/03/04 06:06:12;;;;;;;;;20.75;20.75;;;;;19.93;35.65;101181.78;5076629;27;45247;-55
2022/03/04 06:08:37;;;;;;;;;27.75;21.00;;;;;19.96;35.56;101176.38;5076769;27;45412;-56
2022/03/04 06:11:03;;;;;;;;;19.75;17.75;;;;;20.00;35.27;101177.94;5076437;27;45584;-56
2022/03/04 06:13:29;;;;;;;;;23.50;21.00;;;;;20.04;35.71;101176.84;5076391;27;45570;-55
2022/03/04 06:15:54;;;;;;;;;23.50;21.00;;;;;20.10;35.74;101175.69;5076796;27;45321;-57
2022/03/04 06:18:20;;;;;;;;;24.50;21.50;;;;;20.17;35.67;101184.16;5076482;27;45433;-57
2022/03/04 06:20:46;;;;;;;;;21.25;19.75;;;;;20.22;35.51;101185.63;5076062;27;46167;-58
2022/03/04 06:23:13;;;;;;;;;24.25;21.50;;;;;20.27;35.62;101188.03;5076221;27;45376;-58
2022/03/04 06:25:38;;;;;;;;;21.50;19.00;;;;;20.35;35.52;101200.84;5076334;27;45230;-57
2022/03/04 06:28:04;;;;;;;;;19.00;16.25;;;;;20.38;35.31;101191.00;5075035;28;45419;-59
2022/03/04 06:30:32;;;;;;;;;23.50;21.25;;;;;20.43;34.95;101195.22;5076897;27;45353;-57
2022/03/04 06:35:44;;;;;;;;;20.25;20.00;;;;;20.52;35.58;101200.00;5079628;28;45319;-57
2022/03/04 06:38:11;;;;;;;;;20.25;20.25;;;;;20.57;35.54;101205.88;5079840;28;45212;-57
2022/03/04 06:40:37;;;;;;;;;22.50;19.75;;;;;20.60;35.21;101200.47;5079482;27;46123;-56
2022/03/04 06:43:04;;;;;;;;;20.25;18.25;;;;;20.64;35.26;101199.41;5079510;27;45396;-56
2022/03/04 06:45:29;;;;;;;;;22.75;18.75;;;;;20.68;34.92;101214.09;5079638;27;45484;-56
2022/03/04 06:47:55;;;;;;;;;22.50;22.00;;;;;20.70;35.05;101214.06;5079967;28;45306;-58
2022/03/04 06:50:20;;;;;;;;;22.25;19.25;;;;;20.75;34.75;101224.38;5078134;28;45794;-56
2022/03/04 06:52:46;;;;;;;;;19.50;18.75;;;;;20.79;35.14;101223.28;5079468;27;45421;-56
2022/03/04 06:55:11;;;;;;;;;22.50;19.50;;;;;20.81;34.68;101229.34;5079509;27;45310;-55
2022/03/04 06:57:37;;;;;;;;;19.75;19.75;;;;;20.83;34.70;101230.13;5079606;27;45267;-56
2022/03/04 07:00:07;;;;;;;;;20.75;19.50;;;;;20.85;34.94;101236.16;5079147;27;47152;-57
2022/03/04 07:02:33;;;;;;;;;25.50;21.50;;;;;20.85;35.12;101228.25;5079077;27;45796;-56
2022/03/04 07:05:01;;;;;;;;;23.50;22.75;;;;;20.88;34.84;101237.78;5079762;27;45382;-56
2022/03/04 07:07:27;;;;;;;;;48.50;38.75;;;;;20.83;34.55;101241.53;5078606;27;45512;-53
2022/03/04 07:09:52;;;;;;;;;47.50;39.75;;;;;20.69;35.11;101230.78;5079025;27;46099;-49
2022/03/04 07:12:18;;;;;;;;;51.50;38.50;;;;;20.58;35.57;101233.09;5079186;27;45505;-48
2022/03/04 07:14:43;;;;;;;;;47.00;39.75;;;;;20.47;35.08;101233.59;5094859;27;45688;-55
2022/03/04 07:17:08;;;;;;;;;57.00;42.50;;;;;20.36;35.99;101234.13;5079226;27;45401;-48
2022/03/04 07:19:34;;;;;;;;;49.25;40.50;;;;;20.24;35.94;101239.06;5078895;27;45345;-49
2022/03/04 07:21:59;;;;;;;;;54.00;41.75;;;;;20.13;35.68;101248.38;5079225;27;45282;-53
2022/03/04 07:24:24;;;;;;;;;49.50;40.75;;;;;20.04;36.33;101255.78;5079028;27;45231;-50
2022/03/04 07:26:50;;;;;;;;;52.00;41.50;;;;;19.96;36.04;101260.56;5079193;27;45205;-54
2022/03/04 07:29:15;;;;;;;;;52.00;41.25;;;;;19.85;36.59;101249.66;5078668;27;46084;-51
2022/03/04 07:31:41;;;;;;;;;53.25;42.75;;;;;19.72;36.35;101260.72;5077445;27;45445;-50
2022/03/04 07:34:06;;;;;;;;;54.00;41.75;;;;;19.56;36.71;101250.03;5079029;27;45702;-56
2022/03/04 07:36:33;;;;;;;;;48.75;40.50;;;;;19.47;36.88;101253.91;5079396;27;45781;-56
2022/03/04 07:38:58;;;;;;;;;45.00;36.75;;;;;19.44;36.78;101256.72;5078853;27;45685;-64
2022/03/04 07:41:24;;;;;;;;;48.50;36.00;;;;;19.43;36.93;101260.25;5077951;27;45274;-52
2022/03/04 07:43:50;;;;;;;;;33.25;29.00;;;;;19.47;37.18;101260.97;5078022;27;45342;-52
2022/03/04 07:46:15;;;;;;;;;32.50;31.00;;;;;19.55;36.92;101269.38;5078678;27;45419;-54
2022/03/04 07:48:41;;;;;;;;;38.00;31.00;;;;;19.63;37.21;101263.78;5078267;27;46147;-63
2022/03/04 07:51:06;;;;;;;;;35.75;29.50;;;;;19.71;36.61;101266.06;5076975;28;45428;-49
2022/03/04 07:53:32;;;;;;;;;31.00;27.75;;;;;19.76;36.26;101264.06;5078578;27;45436;-46
2022/03/04 07:55:57;;;;;;;;;33.75;30.00;;;;;19.81;36.33;101269.97;5079060;27;45512;-50
2022/03/04 07:58:22;;;;;;;;;33.50;30.00;;;;;19.88;36.69;101270.59;5078031;27;46310;-50
2022/03/04 08:00:48;;;;;;;;;26.50;18.25;;;;;19.93;36.45;101274.72;5076774;27;46057;-52
2022/03/04 08:03:13;;;;;;;;;35.50;30.75;;;;;19.98;36.06;101282.41;5060172;28;45249;-49
2022/03/04 08:05:39;;;;;;;;;31.00;29.75;;;;;20.00;36.39;101277.91;5078555;27;45324;-50
2022/03/04 08:08:05;;;;;;;;;35.25;29.00;;;;;20.04;36.24;101276.84;5077958;27;47201;-54
2022/03/04 08:10:31;;;;;;;;;31.00;28.25;;;;;20.07;35.92;101281.09;5077294;27;45824;-57
2022/03/04 08:12:56;;;;;;;;;33.75;31.25;;;;;20.09;35.77;101274.00;5078132;28;45256;-50
2022/03/04 08:15:21;;;;;;;;;32.00;28.00;;;;;20.10;35.87;101273.06;5078128;27;45702;-58
2022/03/04 08:17:47;;;;;;;;;31.50;27.00;;;;;20.15;35.67;101288.63;5077715;27;46094;-55
2022/03/04 08:20:12;;;;;;;;;32.75;30.75;;;;;20.15;35.66;101283.38;5077901;27;45283;-56
2022/03/04 08:22:38;;;;;;;;;33.00;30.00;;;;;20.18;35.78;101285.88;5078035;27;45221;-56
2022/03/04 08:25:05;;;;;;;;;31.00;28.75;;;;;20.17;35.44;101289.44;5077072;27;45594;-54
2022/03/04 08:27:30;;;;;;;;;30.75;28.00;;;;;20.17;35.81;101290.31;5076747;27;47585;-50
2022/03/04 08:29:56;;;;;;;;;30.75;27.75;;;;;20.18;35.28;101293.78;5077725;27;45501;-51
2022/03/04 08:32:23;;;;;;;;;30.00;26.75;;;;;20.20;35.84;101299.81;5077963;27;45767;-50
2022/03/04 08:34:49;;;;;;;;;36.75;31.00;;;;;20.20;35.92;101291.94;5077839;27;45476;-55
2022/03/04 08:37:14;;;;;;;;;32.75;27.75;;;;;20.19;35.30;101295.47;5077629;27;45727;-51
2022/03/04 08:39:39;;;;;;;;;38.75;31.75;;;;;20.20;35.52;101294.56;5077699;27;45305;-53
2022/03/04 08:42:06;;;;;;;;;25.75;25.75;;;;;20.18;35.72;101293.78;5077823;27;45235;-55
2022/03/04 08:44:31;;;;;;;;;29.00;25.75;;;;;20.18;35.74;101299.03;5093734;27;45346;-56
2022/03/04 08:46:56;;;;;;;;;26.25;23.00;;;;;20.20;35.42;101305.94;5077452;27;47222;-59
2022/03/04 08:49:22;;;;;;;;;31.25;27.25;;;;;20.19;35.73;101303.38;5075929;27;45536;-52
2022/03/04 08:51:47;;;;;;;;;27.00;26.00;;;;;20.18;35.65;101304.28;5077810;27;45243;-57
2022/03/04 08:54:13;;;;;;;;;28.50;25.75;;;;;20.18;35.48;101304.28;5077431;27;45207;-52
2022/03/04 08:56:38;;;;;;;;;26.75;26.75;;;;;20.19;35.66;101306.84;5077320;27;46724;-51
2022/03/04 08:59:04;;;;;;;;;28.50;25.75;;;;;20.19;35.75;101313.91;5077701;27;45362;-49
2022/03/04 09:01:29;;;;;;;;;31.00;27.75;;;;;20.19;35.71;101312.09;5077684;28;45534;-56
2022/03/04 09:03:55;;;;;;;;;26.75;22.50;;;;;20.19;35.51;101311.28;5077556;27;45406;-59
2022/03/04 09:06:20;;;;;;;;;30.25;27.00;;;;;20.17;35.62;101308.72;5076023;27;46351;-63
2022/03/04 09:08:46;;;;;;;;;26.00;23.00;;;;;20.18;35.38;101315.66;5077325;27;45733;-57
2022/03/04 09:11:11;;;;;;;;;27.50;24.50;;;;;20.16;35.39;101316.66;5077489;27;45792;-59
2022/03/04 09:13:37;;;;;;;;;28.25;20.75;;;;;20.16;35.47;101314.91;5093193;27;45640;-53
2022/03/04 09:16:04;;;;;;;;;26.50;23.50;;;;;20.16;35.50;101317.53;5077183;27;46424;-57
2022/03/04 09:18:29;;;;;;;;;31.50;27.75;;;;;20.13;35.82;101307.16;5077177;27;45350;-58
2022/03/04 09:20:55;;;;;;;;;29.50;28.25;;;;;20.15;35.39;101314.97;5077218;27;45196;-65
2022/03/04 09:23:20;;;;;;;;;26.00;26.00;;;;;20.14;35.34;101315.88;5077279;27;45347;-62
2022/03/04 09:25:46;;;;;;;;;26.00;25.50;;;;;20.13;35.71;101319.44;5076912;27;45454;-63
2022/03/04 09:28:13;;;;;;;;;27.00;24.75;;;;;20.12;35.71;101315.97;5076851;27;45762;-53
2022/03/04 09:30:38;;;;;;;;;28.50;26.50;;;;;20.13;35.67;101319.44;5077049;27;45202;-55
2022/03/04 09:33:04;;;;;;;;;32.50;31.50;;;;;20.13;35.90;101316.81;5077558;27;45178;-50
2022/03/04 09:35:29;;;;;;;;;27.75;25.25;;;;;20.11;35.42;101319.50;5076972;27;46173;-55
2022/03/04 09:37:55;;;;;;;;;29.25;26.50;;;;;20.10;35.57;101317.81;5076848;27;45393;-58
2022/03/04 09:40:20;;;;;;;;;24.25;24.25;;;;;20.11;35.54;101318.69;5077073;27;45423;-54
2022/03/04 09:42:46;;;;;;;;;26.75;23.50;;;;;20.09;35.46;101318.72;5077068;27;45589;-53
2022/03/04 09:45:11;;;;;;;;;28.50;25.25;;;;;20.10;35.48;101311.69;5076593;27;46119;-47
2022/03/04 09:47:37;;;;;;;;;26.75;22.75;;;;;20.10;35.90;101322.22;5077049;27;45331;-52
2022/03/04 09:50:05;;;;;;;;;27.25;25.25;;;;;20.09;35.50;101318.72;5076823;27;45816;-56
2022/03/04 09:52:31;;;;;;;;;26.50;25.00;;;;;20.07;36.18;101318.81;5077134;27;45544;-58
2022/03/04 09:54:56;;;;;;;;;28.75;28.00;;;;;20.07;35.91;101324.06;5076414;27;45571;-58
2022/03/04 09:57:22;;;;;;;;;30.25;24.00;;;;;20.07;36.20;101324.06;5076427;28;45382;-57
2022/03/04 09:59:47;;;;;;;;;28.75;24.75;;;;;20.06;35.72;101319.72;5075376;27;45393;-57
2022/03/04 10:02:14;;;;;;;;;29.25;26.25;;;;;20.06;35.87;101317.09;5076759;27;45375;-58
2022/03/04 10:04:40;;;;;;;;;30.00;27.00;;;;;20.05;36.28;101319.81;5076527;27;46084;-61
2022/03/04 10:07:12;;;;;;;;;28.00;25.50;;;;;20.03;36.53;101317.22;5080014;27;45968;-57
2022/03/04 10:09:41;;;;;;;;;31.00;27.25;;;;;20.04;36.52;101321.56;5096232;27;45239;-58
2022/03/04 10:12:07;;;;;;;;;28.50;25.00;;;;;20.02;37.21;101323.41;5079260;27;45634;-57
2022/03/04 10:14:33;;;;;;;;;32.25;29.25;;;;;20.04;37.45;101324.19;5079755;27;46916;-56
2022/03/04 10:16:59;;;;;;;;;26.25;26.00;;;;;20.02;37.50;101320.78;5078631;28;45506;-58
2022/03/04 10:19:25;;;;;;;;;27.25;23.25;;;;;20.04;37.40;101324.19;5080160;27;45979;-58
2022/03/04 10:22:00;;;;;;;;;26.75;23.00;;;;;20.04;37.44;101318.94;5078959;28;45533;-57
2022/03/04 10:24:30;;;;;;;;;28.50;26.50;;;;;20.03;38.13;101322.50;5079603;27;46607;-58
2022/03/04 10:27:12;;;;;;;;;26.50;24.75;;;;;20.04;38.05;101323.38;5079831;27;45876;-58
2022/03/04 10:29:42;;;;;;;;;24.00;22.00;;;;;20.02;37.83;101320.78;5080149;27;45409;-59
2022/03/04 10:32:15;;;;;;;;;23.50;23.00;;;;;20.02;38.07;101322.56;5080364;28;45566;-57
2022/03/04 10:34:46;;;;;;;;;26.75;22.50;;;;;20.03;38.13;101321.66;5079492;27;47240;-58
2022/03/04 10:37:13;;;;;;;;;25.75;24.75;;;;;20.02;37.58;101326.03;5079653;27;45845;-57
2022/03/04 10:39:58;;;;;;;;;26.00;23.25;;;;;20.02;38.28;101330.47;5080136;27;45327;-58
2022/03/04 10:42:44;;;;;;;;;23.75;22.50;;;;;20.00;37.80;101325.28;5079900;27;45189;-57
2022/03/04 10:45:17;;;;;;;;;26.25;24.00;;;;;20.00;38.14;101332.31;5079921;28;46159;-58
2022/03/04 10:47:50;;;;;;;;;22.00;21.00;;;;;19.98;38.02;101329.75;5079575;27;45332;-58
2022/03/04 10:50:24;;;;;;;;;24.75;23.50;;;;;19.98;38.31;101332.38;5079644;27;45950;-57
2022/03/04 10:52:54;;;;;;;;;27.25;23.25;;;;;19.99;38.10;101333.22;5079875;27;45294;-57
2022/03/04 10:55:32;;;;;;;;;28.00;23.25;;;;;19.98;38.25;101335.00;5079174;27;46332;-57
2022/03/04 10:57:59;;;;;;;;;24.50;22.25;;;;;19.97;38.41;101335.94;5079173;27;45263;-58
2022/03/04 11:00:34;;;;;;;;;31.75;26.50;;;;;19.96;38.39;101328.97;5079391;27;45280;-58
2022/03/04 11:03:00;;;;;;;;;29.50;26.75;;;;;19.96;38.03;101331.59;5079482;27;45189;-56
2022/03/04 11:05:26;;;;;;;;;28.25;21.50;;;;;19.93;38.26;101319.44;5079026;27;45760;-58
2022/03/04 11:07:52;;;;;;;;;25.25;24.00;;;;;19.94;37.96;101322.91;5079242;27;45255;-57